createdAt,value
2022-08-22T00:02:37.465Z,15.37
2022-08-22T00:02:57.375Z,16.73
2022-08-22T00:02:58.022Z,15.62
2022-08-22T00:05:41.911Z,15.31
2022-08-22T00:08:30.319Z,15.28
2022-08-22T00:11:17.996Z,15.23
2022-08-22T00:14:17.369Z,15.19
2022-08-22T00:17:23.747Z,15.15
2022-08-22T00:20:15.647Z,15.11
2022-08-22T00:22:53.760Z,15.07
2022-08-22T00:25:25.715Z,15.04
2022-08-22T00:28:02.825Z,15.00
2022-08-22T00:30:43.239Z,14.95
2022-08-22T00:33:27.605Z,14.93
2022-08-22T00:36:07.310Z,14.91
2022-08-22T00:38:47.752Z,14.89
2022-08-22T00:41:30.207Z,14.87
2022-08-22T00:44:23.082Z,14.85
2022-08-22T00:47:09.785Z,14.82
2022-08-22T00:49:40.361Z,14.80
2022-08-22T00:52:32.564Z,14.76
2022-08-22T00:55:36.381Z,14.75
2022-08-22T00:58:15.518Z,14.71
2022-08-22T01:00:55.226Z,14.69
2022-08-22T01:03:30.923Z,14.68
2022-08-22T01:06:24.045Z,14.66
2022-08-22T01:09:02.759Z,14.64
2022-08-22T01:12:11.825Z,14.61
2022-08-22T01:15:02.683Z,14.58
2022-08-22T01:17:47.903Z,14.59
2022-08-22T01:20:36.801Z,14.57
2022-08-22T01:23:40.668Z,14.54
2022-08-22T01:26:26.179Z,14.51
2022-08-22T01:29:39.673Z,14.47
2022-08-22T01:32:26.432Z,14.44
2022-08-22T01:35:17.891Z,14.41
2022-08-22T01:38:06.575Z,14.37
2022-08-22T01:40:54.766Z,14.35
2022-08-22T01:43:51.352Z,14.31
2022-08-22T01:46:40.804Z,14.27
2022-08-22T01:49:35.447Z,14.24
2022-08-22T01:52:13.170Z,14.20
2022-08-22T01:55:03.041Z,14.15
2022-08-22T01:57:29.664Z,14.12
2022-08-22T02:00:01.762Z,14.10
2022-08-22T02:03:17.046Z,14.05
2022-08-22T02:05:55.077Z,14.01
2022-08-22T02:08:33.686Z,13.97
2022-08-22T02:11:08.027Z,13.94
2022-08-22T02:13:57.051Z,13.89
2022-08-22T02:16:37.557Z,13.84
2022-08-22T02:19:10.041Z,13.78
2022-08-22T02:21:55.791Z,13.73
2022-08-22T02:24:44.923Z,13.70
2022-08-22T02:27:44.015Z,13.67
2022-08-22T02:30:25.466Z,13.63
2022-08-22T02:33:08.883Z,13.59
2022-08-22T02:35:43.205Z,13.57
2022-08-22T02:38:25.417Z,13.53
2022-08-22T02:41:06.488Z,13.50
2022-08-22T02:43:49.670Z,13.46
2022-08-22T02:46:27.416Z,13.42
2022-08-22T02:49:09.181Z,13.38
2022-08-22T02:51:53.614Z,13.33
2022-08-22T02:54:36.306Z,13.31
2022-08-22T02:57:14.201Z,13.28
2022-08-22T03:00:33.333Z,13.24
2022-08-22T03:03:14.183Z,13.23
2022-08-22T03:05:49.320Z,13.20
2022-08-22T03:08:32.621Z,13.19
2022-08-22T03:11:11.044Z,13.17
2022-08-22T03:13:54.356Z,13.14
2022-08-22T03:16:36.213Z,13.12
2022-08-22T03:19:21.106Z,13.10
2022-08-22T03:22:14.162Z,13.06
2022-08-22T03:24:55.533Z,13.04
2022-08-22T03:27:36.333Z,13.01
2022-08-22T03:30:23.338Z,12.98
2022-08-22T03:32:59.184Z,12.94
2022-08-22T03:35:51.008Z,12.92
2022-08-22T03:38:27.142Z,12.89
2022-08-22T03:41:12.434Z,12.86
2022-08-22T03:44:24.351Z,12.84
2022-08-22T03:47:17.288Z,12.82
2022-08-22T03:49:43.782Z,12.79
2022-08-22T03:52:31.327Z,12.77
2022-08-22T03:55:14.096Z,12.74
2022-08-22T03:58:28.574Z,12.71
2022-08-22T04:01:13.923Z,12.68
2022-08-22T04:03:59.130Z,12.66
2022-08-22T04:06:44.604Z,12.65
2022-08-22T04:09:47.589Z,12.64
2022-08-22T04:12:39.217Z,12.63
2022-08-22T04:15:06.056Z,12.63
2022-08-22T04:17:51.547Z,12.61
2022-08-22T04:20:37.785Z,12.60
2022-08-22T04:23:27.974Z,12.59
2022-08-22T04:26:10.694Z,12.58
2022-08-22T04:28:49.211Z,12.57
2022-08-22T04:31:29.841Z,12.55
2022-08-22T04:34:02.728Z,12.53
2022-08-22T04:36:50.666Z,12.52
2022-08-22T04:39:34.333Z,12.51
2022-08-22T04:42:33.604Z,12.53
2022-08-22T04:45:13.916Z,12.53
2022-08-22T04:47:53.987Z,12.55
2022-08-22T04:50:31.012Z,12.57
2022-08-22T04:53:32.791Z,12.59
2022-08-22T04:56:22.283Z,12.60
2022-08-22T04:59:03.342Z,12.63
2022-08-22T05:02:00.376Z,12.66
2022-08-22T05:04:31.916Z,12.70
2022-08-22T05:07:07.691Z,12.73
2022-08-22T05:09:38.965Z,12.77
2022-08-22T05:12:09.721Z,12.81
2022-08-22T05:14:51.302Z,12.85
2022-08-22T05:17:25.486Z,12.92
2022-08-22T05:19:57.543Z,12.96
2022-08-22T05:22:32.945Z,13.02
2022-08-22T05:25:11.417Z,13.11
2022-08-22T05:27:49.800Z,13.17
2022-08-22T05:30:24.565Z,13.25
2022-08-22T05:33:17.010Z,13.32
2022-08-22T05:35:50.836Z,13.38
2022-08-22T05:38:23.853Z,13.46
2022-08-22T05:40:59.402Z,13.52
2022-08-22T05:43:26.763Z,13.59
2022-08-22T05:45:57.139Z,13.67
2022-08-22T05:48:37.518Z,13.76
2022-08-22T05:51:12.873Z,13.84
2022-08-22T05:53:44.543Z,13.92
2022-08-22T05:56:18.450Z,14.01
2022-08-22T05:58:51.598Z,14.10
2022-08-22T06:01:24.869Z,14.19
2022-08-22T06:04:06.973Z,14.29
2022-08-22T06:06:52.242Z,14.38
2022-08-22T06:09:35.552Z,14.48
2022-08-22T06:12:22.492Z,14.60
2022-08-22T06:15:15.637Z,14.69
2022-08-22T06:18:06.118Z,14.79
2022-08-22T06:20:39.333Z,14.87
2022-08-22T06:23:08.167Z,14.95
2022-08-22T06:25:39.222Z,15.04
2022-08-22T06:28:12.754Z,15.12
2022-08-22T06:30:40.231Z,15.20
2022-08-22T06:33:12.658Z,15.29
2022-08-22T06:36:07.874Z,15.40
2022-08-22T06:38:53.151Z,15.50
2022-08-22T06:41:22.487Z,15.62
2022-08-22T06:43:52.730Z,15.72
2022-08-22T06:46:21.322Z,15.80
2022-08-22T06:48:49.110Z,15.88
2022-08-22T06:51:18.618Z,15.97
2022-08-22T06:53:53.740Z,16.09
2022-08-22T06:56:24.483Z,16.20
2022-08-22T06:58:56.611Z,16.30
2022-08-22T07:01:29.061Z,16.41
2022-08-22T07:04:05.396Z,16.51
2022-08-22T07:06:36.617Z,16.61
2022-08-22T07:09:06.852Z,16.73
2022-08-22T07:11:43.208Z,16.85
2022-08-22T07:14:14.413Z,16.95
2022-08-22T07:16:43.920Z,17.10
2022-08-22T07:19:24.013Z,17.22
2022-08-22T07:21:50.829Z,17.32
2022-08-22T07:24:22.631Z,17.42
2022-08-22T07:26:58.847Z,17.52
2022-08-22T07:29:38.901Z,17.59
2022-08-22T07:32:16.130Z,17.70
2022-08-22T07:35:04.115Z,17.81
2022-08-22T07:37:51.914Z,17.93
2022-08-22T07:40:43.081Z,18.04
2022-08-22T07:43:28.859Z,18.16
2022-08-22T07:46:01.431Z,18.27
2022-08-22T07:49:05.871Z,18.38
2022-08-22T07:51:37.007Z,18.48
2022-08-22T07:54:08.133Z,18.59
2022-08-22T07:56:42.373Z,18.68
2022-08-22T07:59:16.318Z,18.76
2022-08-22T08:01:51.127Z,18.88
2022-08-22T08:04:23.236Z,18.97
2022-08-22T08:06:53.309Z,19.03
2022-08-22T08:09:21.141Z,19.14
2022-08-22T08:11:51.738Z,19.21
2022-08-22T08:14:21.836Z,19.27
2022-08-22T08:17:02.281Z,19.37
2022-08-22T08:19:35.700Z,19.49
2022-08-22T08:22:04.724Z,19.59
2022-08-22T08:24:39.935Z,19.72
2022-08-22T08:27:33.321Z,19.80
2022-08-22T08:30:04.875Z,19.88
2022-08-22T08:32:35.232Z,19.97
2022-08-22T08:35:29.867Z,20.07
2022-08-22T08:38:18.300Z,20.16
2022-08-22T08:41:11.986Z,20.25
2022-08-22T08:44:03.205Z,20.38
2022-08-22T08:46:35.477Z,20.45
2022-08-22T08:49:24.142Z,20.52
2022-08-22T08:52:28.489Z,20.60
2022-08-22T08:55:16.027Z,20.70
2022-08-22T08:58:06.804Z,20.81
2022-08-22T09:00:45.931Z,20.96
2022-08-22T09:03:46.255Z,21.02
2022-08-22T09:06:18.443Z,21.11
2022-08-22T09:09:03.849Z,21.25
2022-08-22T09:11:50.763Z,21.32
2022-08-22T09:14:48.352Z,21.36
2022-08-22T09:18:03.574Z,21.39
2022-08-22T09:21:03.267Z,21.51
2022-08-22T09:24:05.268Z,21.63
2022-08-22T09:26:48.102Z,21.77
2022-08-22T09:29:33.607Z,21.98
2022-08-22T09:32:19.832Z,22.23
2022-08-22T09:35:13.588Z,22.43
2022-08-22T09:38:00.463Z,22.60
2022-08-22T09:40:32.244Z,22.72
2022-08-22T09:43:21.356Z,22.84
2022-08-22T09:46:10.792Z,22.95
2022-08-22T09:48:48.710Z,23.07
2022-08-22T09:51:31.602Z,23.21
2022-08-22T09:54:14.658Z,23.37
2022-08-22T09:57:00.707Z,23.50
2022-08-22T09:59:48.619Z,23.63
2022-08-22T10:02:43.483Z,23.80
2022-08-22T10:05:35.133Z,23.97
2022-08-22T10:08:14.948Z,24.14
2022-08-22T10:11:06.660Z,24.38
2022-08-22T10:13:38.434Z,24.52
2022-08-22T10:16:21.344Z,24.66
2022-08-22T10:19:00.562Z,24.65
2022-08-22T10:21:39.390Z,24.74
2022-08-22T10:24:25.596Z,24.76
2022-08-22T10:27:09.028Z,24.80
2022-08-22T10:29:51.506Z,24.84
2022-08-22T10:32:36.074Z,24.80
2022-08-22T10:35:27.760Z,24.77
2022-08-22T10:38:03.065Z,24.83
2022-08-22T10:40:37.946Z,24.79
2022-08-22T10:43:31.190Z,24.78
2022-08-22T10:46:06.665Z,24.85
2022-08-22T10:48:56.992Z,24.98
2022-08-22T10:51:38.986Z,25.10
2022-08-22T10:54:20.000Z,25.16
2022-08-22T10:57:08.367Z,25.31
2022-08-22T11:00:01.759Z,25.45
2022-08-22T11:02:39.157Z,25.57
2022-08-22T11:05:18.063Z,25.68
2022-08-22T11:08:23.013Z,25.64
2022-08-22T11:11:05.584Z,25.45
2022-08-22T11:13:56.277Z,25.35
2022-08-22T11:16:28.601Z,25.28
2022-08-22T11:19:32.923Z,25.25
2022-08-22T11:22:25.617Z,25.25
2022-08-22T11:25:35.732Z,25.28
2022-08-22T11:28:22.196Z,25.36
2022-08-22T11:30:57.833Z,25.55
2022-08-22T11:33:47.473Z,25.69
2022-08-22T11:36:30.926Z,25.85
2022-08-22T11:39:06.521Z,25.97
2022-08-22T11:41:52.328Z,26.03
2022-08-22T11:44:32.137Z,26.01
2022-08-22T11:47:07.852Z,25.93
2022-08-22T11:49:56.730Z,25.80
2022-08-22T11:52:36.625Z,25.75
2022-08-22T11:55:38.545Z,25.71
2022-08-22T11:58:14.103Z,25.77
2022-08-22T12:00:55.390Z,25.89
2022-08-22T12:04:03.413Z,26.08
2022-08-22T12:06:45.743Z,26.25
2022-08-22T12:09:17.943Z,26.35
2022-08-22T12:11:45.255Z,26.44
2022-08-22T12:14:26.887Z,26.52
2022-08-22T12:17:12.894Z,26.60
2022-08-22T12:20:27.577Z,26.66
2022-08-22T12:23:30.054Z,26.77
2022-08-22T12:26:29.148Z,26.85
2022-08-22T12:29:28.561Z,26.93
2022-08-22T12:32:27.427Z,27.03
2022-08-22T12:35:13.730Z,27.09
2022-08-22T12:37:53.021Z,27.03
2022-08-22T12:40:43.647Z,26.97
2022-08-22T12:43:22.273Z,26.88
2022-08-22T12:46:13.033Z,26.89
2022-08-22T12:48:55.119Z,26.90
2022-08-22T12:51:30.572Z,26.92
2022-08-22T12:54:29.278Z,27.10
2022-08-22T12:57:23.944Z,27.22
2022-08-22T12:59:58.199Z,27.36
2022-08-22T13:02:30.427Z,27.43
2022-08-22T13:04:57.057Z,27.45
2022-08-22T13:07:29.111Z,27.52
2022-08-22T13:10:40.233Z,27.60
2022-08-22T13:13:12.081Z,27.52
2022-08-22T13:15:56.526Z,27.45
2022-08-22T13:18:31.130Z,27.42
2022-08-22T13:21:02.617Z,27.46
2022-08-22T13:23:39.923Z,27.47
2022-08-22T13:26:31.628Z,27.48
2022-08-22T13:29:24.638Z,27.54
2022-08-22T13:32:01.577Z,27.58
2022-08-22T13:34:43.637Z,27.61
2022-08-22T13:37:24.588Z,27.63
2022-08-22T13:39:58.522Z,27.73
2022-08-22T13:42:30.864Z,27.78
2022-08-22T13:45:02.970Z,27.89
2022-08-22T13:47:34.719Z,27.94
2022-08-22T13:50:14.034Z,27.97
2022-08-22T13:52:52.597Z,27.93
2022-08-22T13:56:05.019Z,27.93
2022-08-22T13:58:42.572Z,27.89
2022-08-22T14:01:20.009Z,27.89
2022-08-22T14:04:17.783Z,27.88
2022-08-22T14:07:04.650Z,27.89
2022-08-22T14:09:36.444Z,27.93
2022-08-22T14:12:15.488Z,28.04
2022-08-22T14:14:46.357Z,28.15
2022-08-22T14:17:19.854Z,28.18
2022-08-22T14:19:59.344Z,28.17
2022-08-22T14:22:34.918Z,28.07
2022-08-22T14:25:21.564Z,27.95
2022-08-22T14:28:06.115Z,27.89
2022-08-22T14:30:54.269Z,27.83
2022-08-22T14:33:28.379Z,27.79
2022-08-22T14:36:02.897Z,27.77
2022-08-22T14:38:32.096Z,27.76
2022-08-22T14:41:06.857Z,27.71
2022-08-22T14:43:48.293Z,27.75
2022-08-22T14:46:23.518Z,27.76
2022-08-22T14:48:56.214Z,27.70
2022-08-22T14:51:25.455Z,27.64
2022-08-22T14:53:52.630Z,27.66
2022-08-22T14:56:23.278Z,27.64
2022-08-22T14:58:50.685Z,27.62
2022-08-22T15:01:21.802Z,27.66
2022-08-22T15:03:53.848Z,27.55
2022-08-22T15:06:36.020Z,27.49
2022-08-22T15:09:41.985Z,27.49
2022-08-22T15:12:32.131Z,27.49
2022-08-22T15:15:01.857Z,27.47
2022-08-22T15:17:38.492Z,27.42
2022-08-22T15:20:22.735Z,27.37
2022-08-22T15:23:01.605Z,27.30
2022-08-22T15:25:41.139Z,27.28
2022-08-22T15:28:20.572Z,27.33
2022-08-22T15:31:03.483Z,27.37
2022-08-22T15:33:39.064Z,27.42
2022-08-22T15:36:21.205Z,27.44
2022-08-22T15:38:50.709Z,27.51
2022-08-22T15:41:36.702Z,27.70
2022-08-22T15:44:30.767Z,27.99
2022-08-22T15:47:03.119Z,28.48
2022-08-22T15:49:34.696Z,29.51
2022-08-22T15:52:01.141Z,30.76
2022-08-22T15:54:44.247Z,32.14
2022-08-22T15:57:40.317Z,33.28
2022-08-22T16:00:30.812Z,34.37
2022-08-22T16:03:01.408Z,35.26
2022-08-22T16:05:44.492Z,35.97
2022-08-22T16:08:21.745Z,36.55
2022-08-22T16:11:06.724Z,37.00
2022-08-22T16:13:38.185Z,37.41
2022-08-22T16:16:34.005Z,38.22
2022-08-22T16:19:03.205Z,38.92
2022-08-22T16:21:29.642Z,39.22
2022-08-22T16:23:56.704Z,39.67
2022-08-22T16:26:24.279Z,40.21
2022-08-22T16:28:59.446Z,40.57
2022-08-22T16:32:01.327Z,40.68
2022-08-22T16:34:37.073Z,40.75
2022-08-22T16:37:03.535Z,40.95
2022-08-22T16:39:46.121Z,41.12
2022-08-22T16:42:12.646Z,41.21
2022-08-22T16:44:54.773Z,41.12
2022-08-22T16:48:05.298Z,40.88
2022-08-22T16:50:38.180Z,40.70
2022-08-22T16:53:10.406Z,40.57
2022-08-22T16:55:55.572Z,40.08
2022-08-22T16:58:57.059Z,39.54
2022-08-22T17:01:47.852Z,39.20
2022-08-22T17:04:32.478Z,38.69
2022-08-22T17:07:42.990Z,37.94
2022-08-22T17:10:36.087Z,37.30
2022-08-22T17:13:22.309Z,37.01
2022-08-22T17:16:31.553Z,36.50
2022-08-22T17:19:37.316Z,35.85
2022-08-22T17:22:18.148Z,35.08
2022-08-22T17:24:50.743Z,34.33
2022-08-22T17:27:37.302Z,33.60
2022-08-22T17:30:07.256Z,32.92
2022-08-22T17:33:03.027Z,32.30
2022-08-22T17:36:26.856Z,31.69
2022-08-22T17:39:29.138Z,31.09
2022-08-22T17:42:35.482Z,30.59
2022-08-22T17:45:28.120Z,30.18
2022-08-22T17:48:12.082Z,29.81
2022-08-22T17:50:46.586Z,29.47
2022-08-22T17:53:31.120Z,29.15
2022-08-22T17:56:16.324Z,28.85
2022-08-22T17:58:54.209Z,28.56
2022-08-22T18:01:43.885Z,28.30
2022-08-22T18:04:23.082Z,28.08
2022-08-22T18:06:58.370Z,27.84
2022-08-22T18:09:39.020Z,27.55
2022-08-22T18:12:17.281Z,27.32
2022-08-22T18:15:02.912Z,27.10
2022-08-22T18:17:41.272Z,26.90
2022-08-22T18:20:17.128Z,26.70
2022-08-22T18:22:50.813Z,26.50
2022-08-22T18:25:17.243Z,26.32
2022-08-22T18:27:55.936Z,26.13
2022-08-22T18:30:28.344Z,25.94
2022-08-22T18:32:59.786Z,25.78
2022-08-22T18:35:40.227Z,25.60
2022-08-22T18:38:32.075Z,25.42
2022-08-22T18:41:07.391Z,25.24
2022-08-22T18:43:40.740Z,25.08
2022-08-22T18:46:38.123Z,24.92
2022-08-22T18:49:20.251Z,24.81
2022-08-22T18:52:05.499Z,24.68
2022-08-22T18:55:02.892Z,24.57
2022-08-22T18:58:14.482Z,24.46
2022-08-22T19:01:00.455Z,24.34
2022-08-22T19:03:51.929Z,24.23
2022-08-22T19:06:43.438Z,24.11
2022-08-22T19:09:41.212Z,24.00
2022-08-22T19:12:35.844Z,23.92
2022-08-22T19:15:33.470Z,23.82
2022-08-22T19:18:23.045Z,23.71
2022-08-22T19:21:46.331Z,23.61
2022-08-22T19:24:42.789Z,23.53
2022-08-22T19:27:18.479Z,23.40
2022-08-22T19:29:45.055Z,23.33
2022-08-22T19:32:46.741Z,23.24
2022-08-22T19:35:24.648Z,23.18
2022-08-22T19:37:58.366Z,23.08
2022-08-22T19:40:58.309Z,22.99
2022-08-22T19:43:40.483Z,22.91
2022-08-22T19:46:11.922Z,22.82
2022-08-22T19:48:47.874Z,22.75
2022-08-22T19:51:20.433Z,22.67
2022-08-22T19:53:47.209Z,22.61
2022-08-22T19:56:52.638Z,22.54
2022-08-22T20:00:00.236Z,22.44
2022-08-22T20:02:37.573Z,22.38
2022-08-22T20:05:22.151Z,22.29
2022-08-22T20:08:04.582Z,22.22
2022-08-22T20:11:03.540Z,22.15
2022-08-22T20:13:33.314Z,22.07
2022-08-22T20:16:23.686Z,21.99
2022-08-22T20:19:15.480Z,21.91
2022-08-22T20:21:55.104Z,21.83
2022-08-22T20:24:43.409Z,21.76
2022-08-22T20:27:29.146Z,21.68
2022-08-22T20:30:07.797Z,21.62
2022-08-22T20:32:58.061Z,21.56
2022-08-22T20:35:52.551Z,21.50
2022-08-22T20:38:23.572Z,21.43
2022-08-22T20:40:58.000Z,21.37
2022-08-22T20:43:51.543Z,21.30
2022-08-22T20:46:37.841Z,21.23
2022-08-22T20:49:17.899Z,21.19
2022-08-22T20:51:55.249Z,21.13
2022-08-22T20:54:24.794Z,21.08
2022-08-22T20:56:55.867Z,21.02
2022-08-22T20:59:31.584Z,20.99
2022-08-22T21:02:45.017Z,20.91
2022-08-22T21:05:11.554Z,20.87
2022-08-22T21:07:39.324Z,20.81
2022-08-22T21:10:34.100Z,20.78
2022-08-22T21:13:10.816Z,20.72
2022-08-22T21:15:49.441Z,20.68
2022-08-22T21:18:27.591Z,20.64
2022-08-22T21:20:55.140Z,20.60
2022-08-22T21:23:21.798Z,20.56
2022-08-22T21:26:00.951Z,20.51
2022-08-22T21:28:35.844Z,20.48
2022-08-22T21:31:31.321Z,20.41
2022-08-22T21:33:58.522Z,20.38
2022-08-22T21:36:29.058Z,20.33
2022-08-22T21:39:03.849Z,20.30
2022-08-22T21:41:47.865Z,20.24
2022-08-22T21:44:28.511Z,20.20
2022-08-22T21:46:55.696Z,20.14
2022-08-22T21:49:29.441Z,20.10
2022-08-22T21:51:56.393Z,20.05
2022-08-22T21:54:26.064Z,20.01
2022-08-22T21:56:55.784Z,19.98
2022-08-22T21:59:51.593Z,19.94
2022-08-22T22:02:37.659Z,19.89
2022-08-22T22:05:17.822Z,19.85
2022-08-22T22:07:46.984Z,19.81
2022-08-22T22:10:16.703Z,19.78
2022-08-22T22:12:45.214Z,19.73
2022-08-22T22:15:19.100Z,19.68
2022-08-22T22:17:45.810Z,19.64
2022-08-22T22:20:16.277Z,19.59
2022-08-22T22:22:46.468Z,19.55
2022-08-22T22:25:40.570Z,19.50
2022-08-22T22:28:09.308Z,19.46
2022-08-22T22:30:36.452Z,19.43
2022-08-22T22:33:03.149Z,19.39
2022-08-22T22:35:30.376Z,19.36
2022-08-22T22:37:56.986Z,19.32
2022-08-22T22:40:24.355Z,19.29
2022-08-22T22:42:51.118Z,19.25
2022-08-22T22:45:17.631Z,19.21
2022-08-22T22:47:44.390Z,19.18
2022-08-22T22:50:10.962Z,19.14
2022-08-22T22:52:38.521Z,19.10
2022-08-22T22:55:09.175Z,19.07
2022-08-22T22:57:41.387Z,19.04
2022-08-22T23:00:11.804Z,18.99
2022-08-22T23:02:38.933Z,18.96
2022-08-22T23:05:07.250Z,18.90
2022-08-22T23:07:34.166Z,18.86
2022-08-22T23:10:01.517Z,18.82
2022-08-22T23:12:28.886Z,18.78
2022-08-22T23:14:55.588Z,18.76
2022-08-22T23:17:22.255Z,18.72
2022-08-22T23:19:51.064Z,18.68
2022-08-22T23:22:17.990Z,18.63
2022-08-22T23:24:44.587Z,18.57
2022-08-22T23:27:11.582Z,18.54
2022-08-22T23:29:43.516Z,18.49
2022-08-22T23:32:11.543Z,18.44
2022-08-22T23:34:46.044Z,18.38
2022-08-22T23:37:18.641Z,18.34
2022-08-22T23:39:45.324Z,18.29
2022-08-22T23:42:13.044Z,18.24
2022-08-22T23:44:41.459Z,18.20
2022-08-22T23:47:10.208Z,18.16
2022-08-22T23:49:38.126Z,18.12
2022-08-22T23:52:06.464Z,18.07
2022-08-22T23:54:33.872Z,18.01
2022-08-22T23:57:02.719Z,17.99
2022-08-22T23:59:40.165Z,17.96
